sensor_id;sensor_type;location;lat;lon;timestamp;temperature;humidity
78779;DHT22;68121;52.404;5.318;2023-05-27T00:01:17;10.60;62.60
78779;DHT22;68121;52.404;5.318;2023-05-27T00:03:43;10.70;62.60
78779;DHT22;68121;52.404;5.318;2023-05-27T00:06:09;10.70;62.60
78779;DHT22;68121;52.404;5.318;2023-05-27T00:08:35;10.70;62.60
78779;DHT22;68121;52.404;5.318;2023-05-27T00:11:01;10.70;62.60
78779;DHT22;68121;52.404;5.318;2023-05-27T00:13:27;10.60;62.70
78779;DHT22;68121;52.404;5.318;2023-05-27T00:15:54;10.60;62.80
78779;DHT22;68121;52.404;5.318;2023-05-27T00:18:20;10.60;62.90
78779;DHT22;68121;52.404;5.318;2023-05-27T00:20:47;10.60;62.90
78779;DHT22;68121;52.404;5.318;2023-05-27T00:23:14;10.60;63.00
78779;DHT22;68121;52.404;5.318;2023-05-27T00:25:40;10.60;63.10
78779;DHT22;68121;52.404;5.318;2023-05-27T00:28:06;10.60;63.10
78779;DHT22;68121;52.404;5.318;2023-05-27T00:30:33;10.50;63.20
78779;DHT22;68121;52.404;5.318;2023-05-27T00:32:59;10.50;63.30
78779;DHT22;68121;52.404;5.318;2023-05-27T00:35:25;10.50;63.30
78779;DHT22;68121;52.404;5.318;2023-05-27T00:37:51;10.40;63.40
78779;DHT22;68121;52.404;5.318;2023-05-27T00:40:21;10.40;63.40
78779;DHT22;68121;52.404;5.318;2023-05-27T00:42:47;10.40;63.50
78779;DHT22;68121;52.404;5.318;2023-05-27T00:45:13;10.30;63.50
78779;DHT22;68121;52.404;5.318;2023-05-27T00:47:40;10.30;63.60
78779;DHT22;68121;52.404;5.318;2023-05-27T00:50:06;10.30;63.70
78779;DHT22;68121;52.404;5.318;2023-05-27T00:52:34;10.30;63.70
78779;DHT22;68121;52.404;5.318;2023-05-27T00:55:00;10.20;63.70
78779;DHT22;68121;52.404;5.318;2023-05-27T00:57:26;10.20;63.80
78779;DHT22;68121;52.404;5.318;2023-05-27T00:59:52;10.20;63.90
78779;DHT22;68121;52.404;5.318;2023-05-27T01:02:18;10.10;64.00
78779;DHT22;68121;52.404;5.318;2023-05-27T01:04:46;10.10;64.00
78779;DHT22;68121;52.404;5.318;2023-05-27T01:07:48;10.10;64.20
78779;DHT22;68121;52.404;5.318;2023-05-27T01:10:50;10.00;64.40
78779;DHT22;68121;52.404;5.318;2023-05-27T01:15:59;9.80;64.50
78779;DHT22;68121;52.404;5.318;2023-05-27T01:18:28;9.80;64.50
78779;DHT22;68121;52.404;5.318;2023-05-27T01:21:03;9.80;64.60
78779;DHT22;68121;52.404;5.318;2023-05-27T01:23:31;9.80;64.70
78779;DHT22;68121;52.404;5.318;2023-05-27T01:25:59;9.80;64.60
78779;DHT22;68121;52.404;5.318;2023-05-27T01:28:25;9.80;64.70
78779;DHT22;68121;52.404;5.318;2023-05-27T01:30:54;9.80;64.70
78779;DHT22;68121;52.404;5.318;2023-05-27T01:33:25;9.80;64.70
78779;DHT22;68121;52.404;5.318;2023-05-27T01:36:01;9.80;64.80
78779;DHT22;68121;52.404;5.318;2023-05-27T01:38:31;9.80;64.80
78779;DHT22;68121;52.404;5.318;2023-05-27T01:40:58;9.80;64.90
78779;DHT22;68121;52.404;5.318;2023-05-27T01:43:26;9.70;65.00
78779;DHT22;68121;52.404;5.318;2023-05-27T01:45:52;9.70;65.00
78779;DHT22;68121;52.404;5.318;2023-05-27T01:48:18;9.70;65.10
78779;DHT22;68121;52.404;5.318;2023-05-27T01:50:45;9.70;65.20
78779;DHT22;68121;52.404;5.318;2023-05-27T01:53:11;9.60;65.20
78779;DHT22;68121;52.404;5.318;2023-05-27T01:55:37;9.60;65.30
78779;DHT22;68121;52.404;5.318;2023-05-27T01:58:03;9.60;65.30
78779;DHT22;68121;52.404;5.318;2023-05-27T02:00:30;9.60;65.40
78779;DHT22;68121;52.404;5.318;2023-05-27T02:02:56;9.60;65.50
78779;DHT22;68121;52.404;5.318;2023-05-27T02:05:22;9.60;65.50
78779;DHT22;68121;52.404;5.318;2023-05-27T02:07:48;9.60;65.50
78779;DHT22;68121;52.404;5.318;2023-05-27T02:10:14;9.60;65.50
78779;DHT22;68121;52.404;5.318;2023-05-27T02:12:40;9.60;65.50
78779;DHT22;68121;52.404;5.318;2023-05-27T02:15:06;9.50;65.60
78779;DHT22;68121;52.404;5.318;2023-05-27T02:17:33;9.50;65.60
78779;DHT22;68121;52.404;5.318;2023-05-27T02:19:59;9.50;65.70
78779;DHT22;68121;52.404;5.318;2023-05-27T02:22:26;9.40;65.70
78779;DHT22;68121;52.404;5.318;2023-05-27T02:24:52;9.40;65.80
78779;DHT22;68121;52.404;5.318;2023-05-27T02:27:18;9.40;65.80
78779;DHT22;68121;52.404;5.318;2023-05-27T02:29:44;9.40;65.80
78779;DHT22;68121;52.404;5.318;2023-05-27T02:32:10;9.40;65.90
78779;DHT22;68121;52.404;5.318;2023-05-27T02:34:37;9.40;66.00
78779;DHT22;68121;52.404;5.318;2023-05-27T02:37:04;9.40;66.00
78779;DHT22;68121;52.404;5.318;2023-05-27T02:39:30;9.40;66.10
78779;DHT22;68121;52.404;5.318;2023-05-27T02:41:56;9.40;66.10
78779;DHT22;68121;52.404;5.318;2023-05-27T02:44:22;9.40;66.10
78779;DHT22;68121;52.404;5.318;2023-05-27T02:46:48;9.40;66.10
78779;DHT22;68121;52.404;5.318;2023-05-27T02:49:14;9.40;66.10
78779;DHT22;68121;52.404;5.318;2023-05-27T02:51:41;9.40;66.10
78779;DHT22;68121;52.404;5.318;2023-05-27T02:54:07;9.30;66.20
78779;DHT22;68121;52.404;5.318;2023-05-27T02:56:33;9.30;66.20
78779;DHT22;68121;52.404;5.318;2023-05-27T02:58:59;9.20;66.30
78779;DHT22;68121;52.404;5.318;2023-05-27T03:01:25;9.20;66.30
78779;DHT22;68121;52.404;5.318;2023-05-27T03:03:51;9.20;66.40
78779;DHT22;68121;52.404;5.318;2023-05-27T03:06:17;9.20;66.40
78779;DHT22;68121;52.404;5.318;2023-05-27T03:08:45;9.20;66.50
78779;DHT22;68121;52.404;5.318;2023-05-27T03:11:11;9.20;66.50
78779;DHT22;68121;52.404;5.318;2023-05-27T03:13:37;9.20;66.60
78779;DHT22;68121;52.404;5.318;2023-05-27T03:16:03;9.20;66.70
78779;DHT22;68121;52.404;5.318;2023-05-27T03:18:29;9.20;66.70
78779;DHT22;68121;52.404;5.318;2023-05-27T03:20:55;9.20;66.80
78779;DHT22;68121;52.404;5.318;2023-05-27T03:23:21;9.20;66.80
78779;DHT22;68121;52.404;5.318;2023-05-27T03:25:47;9.20;66.80
78779;DHT22;68121;52.404;5.318;2023-05-27T03:28:14;9.20;66.80
78779;DHT22;68121;52.404;5.318;2023-05-27T03:30:41;9.20;66.90
78779;DHT22;68121;52.404;5.318;2023-05-27T03:33:09;9.20;67.00
78779;DHT22;68121;52.404;5.318;2023-05-27T03:35:35;9.10;67.00
78779;DHT22;68121;52.404;5.318;2023-05-27T03:38:01;9.10;67.10
78779;DHT22;68121;52.404;5.318;2023-05-27T03:40:28;9.10;67.10
78779;DHT22;68121;52.404;5.318;2023-05-27T03:42:54;9.20;67.10
78779;DHT22;68121;52.404;5.318;2023-05-27T03:45:20;9.20;67.20
78779;DHT22;68121;52.404;5.318;2023-05-27T03:47:46;9.20;67.20
78779;DHT22;68121;52.404;5.318;2023-05-27T03:50:12;9.20;67.20
78779;DHT22;68121;52.404;5.318;2023-05-27T03:52:38;9.20;67.20
78779;DHT22;68121;52.404;5.318;2023-05-27T03:55:04;9.20;67.30
78779;DHT22;68121;52.404;5.318;2023-05-27T03:57:30;9.10;67.30
78779;DHT22;68121;52.404;5.318;2023-05-27T03:59:56;9.10;67.40
78779;DHT22;68121;52.404;5.318;2023-05-27T04:02:22;9.10;67.40
78779;DHT22;68121;52.404;5.318;2023-05-27T04:04:48;9.20;67.40
78779;DHT22;68121;52.404;5.318;2023-05-27T04:07:15;9.10;67.50
78779;DHT22;68121;52.404;5.318;2023-05-27T04:09:41;9.10;67.50
78779;DHT22;68121;52.404;5.318;2023-05-27T04:12:08;9.10;67.50
78779;DHT22;68121;52.404;5.318;2023-05-27T04:14:34;9.10;67.60
78779;DHT22;68121;52.404;5.318;2023-05-27T04:17:01;9.10;67.70
78779;DHT22;68121;52.404;5.318;2023-05-27T04:19:27;9.10;67.70
78779;DHT22;68121;52.404;5.318;2023-05-27T04:21:53;9.10;67.70
78779;DHT22;68121;52.404;5.318;2023-05-27T04:24:19;9.10;67.70
78779;DHT22;68121;52.404;5.318;2023-05-27T04:26:45;9.10;67.70
78779;DHT22;68121;52.404;5.318;2023-05-27T04:29:12;9.10;67.70
78779;DHT22;68121;52.404;5.318;2023-05-27T04:31:39;9.10;67.80
78779;DHT22;68121;52.404;5.318;2023-05-27T04:34:05;9.10;67.80
78779;DHT22;68121;52.404;5.318;2023-05-27T04:36:32;9.20;67.90
78779;DHT22;68121;52.404;5.318;2023-05-27T04:39:00;9.20;67.90
78779;DHT22;68121;52.404;5.318;2023-05-27T04:41:30;9.20;67.80
78779;DHT22;68121;52.404;5.318;2023-05-27T04:43:58;9.20;67.90
78779;DHT22;68121;52.404;5.318;2023-05-27T04:46:26;9.30;67.80
78779;DHT22;68121;52.404;5.318;2023-05-27T04:48:53;9.30;67.90
78779;DHT22;68121;52.404;5.318;2023-05-27T04:51:19;9.40;67.90
78779;DHT22;68121;52.404;5.318;2023-05-27T04:53:46;9.40;67.90
78779;DHT22;68121;52.404;5.318;2023-05-27T04:56:14;9.40;67.90
78779;DHT22;68121;52.404;5.318;2023-05-27T04:58:45;9.40;67.90
78779;DHT22;68121;52.404;5.318;2023-05-27T05:01:15;9.40;67.90
78779;DHT22;68121;52.404;5.318;2023-05-27T05:03:46;9.40;67.90
78779;DHT22;68121;52.404;5.318;2023-05-27T05:06:28;9.50;67.90
78779;DHT22;68121;52.404;5.318;2023-05-27T05:08:54;9.50;67.90
78779;DHT22;68121;52.404;5.318;2023-05-27T05:11:21;9.60;67.90
78779;DHT22;68121;52.404;5.318;2023-05-27T05:13:47;9.60;67.90
78779;DHT22;68121;52.404;5.318;2023-05-27T05:16:13;9.70;67.90
78779;DHT22;68121;52.404;5.318;2023-05-27T05:18:39;9.80;68.10
78779;DHT22;68121;52.404;5.318;2023-05-27T05:21:05;10.00;67.90
78779;DHT22;68121;52.404;5.318;2023-05-27T05:23:31;10.00;67.80
78779;DHT22;68121;52.404;5.318;2023-05-27T05:25:57;10.00;67.90
78779;DHT22;68121;52.404;5.318;2023-05-27T05:28:32;10.00;67.80
78779;DHT22;68121;52.404;5.318;2023-05-27T05:30:58;10.10;67.80
78779;DHT22;68121;52.404;5.318;2023-05-27T05:33:25;10.10;67.70
78779;DHT22;68121;52.404;5.318;2023-05-27T05:35:51;10.10;67.70
78779;DHT22;68121;52.404;5.318;2023-05-27T05:38:17;10.10;67.70
78779;DHT22;68121;52.404;5.318;2023-05-27T05:40:43;10.10;67.70
78779;DHT22;68121;52.404;5.318;2023-05-27T05:43:14;10.10;67.80
78779;DHT22;68121;52.404;5.318;2023-05-27T05:45:40;10.20;67.80
78779;DHT22;68121;52.404;5.318;2023-05-27T05:48:07;10.30;67.80
78779;DHT22;68121;52.404;5.318;2023-05-27T05:50:33;10.30;67.70
78779;DHT22;68121;52.404;5.318;2023-05-27T05:53:00;10.40;67.60
78779;DHT22;68121;52.404;5.318;2023-05-27T05:55:26;10.50;67.50
78779;DHT22;68121;52.404;5.318;2023-05-27T05:57:52;10.60;67.40
78779;DHT22;68121;52.404;5.318;2023-05-27T06:00:18;10.70;67.30
78779;DHT22;68121;52.404;5.318;2023-05-27T06:02:44;10.80;67.30
78779;DHT22;68121;52.404;5.318;2023-05-27T06:05:10;10.90;67.20
78779;DHT22;68121;52.404;5.318;2023-05-27T06:07:36;11.00;67.20
78779;DHT22;68121;52.404;5.318;2023-05-27T06:10:02;11.10;67.20
78779;DHT22;68121;52.404;5.318;2023-05-27T06:12:29;11.30;67.00
78779;DHT22;68121;52.404;5.318;2023-05-27T06:14:55;11.30;66.80
78779;DHT22;68121;52.404;5.318;2023-05-27T06:17:21;11.40;66.60
78779;DHT22;68121;52.404;5.318;2023-05-27T06:19:47;11.40;66.50
78779;DHT22;68121;52.404;5.318;2023-05-27T06:22:13;11.40;66.60
78779;DHT22;68121;52.404;5.318;2023-05-27T06:24:39;11.50;66.60
78779;DHT22;68121;52.404;5.318;2023-05-27T06:27:05;11.50;66.50
78779;DHT22;68121;52.404;5.318;2023-05-27T06:29:31;11.60;66.40
78779;DHT22;68121;52.404;5.318;2023-05-27T06:31:57;11.70;66.20
78779;DHT22;68121;52.404;5.318;2023-05-27T06:34:23;11.70;66.20
78779;DHT22;68121;52.404;5.318;2023-05-27T06:36:49;11.90;66.10
78779;DHT22;68121;52.404;5.318;2023-05-27T06:39:16;12.00;66.00
78779;DHT22;68121;52.404;5.318;2023-05-27T06:41:42;12.10;65.70
78779;DHT22;68121;52.404;5.318;2023-05-27T06:44:08;12.20;65.60
78779;DHT22;68121;52.404;5.318;2023-05-27T06:46:34;12.30;65.60
78779;DHT22;68121;52.404;5.318;2023-05-27T06:49:00;12.50;65.40
78779;DHT22;68121;52.404;5.318;2023-05-27T06:51:26;12.50;65.30
78779;DHT22;68121;52.404;5.318;2023-05-27T06:53:52;12.50;65.30
78779;DHT22;68121;52.404;5.318;2023-05-27T06:56:18;12.60;65.20
78779;DHT22;68121;52.404;5.318;2023-05-27T06:58:45;12.70;65.00
78779;DHT22;68121;52.404;5.318;2023-05-27T07:01:11;12.60;65.00
78779;DHT22;68121;52.404;5.318;2023-05-27T07:03:37;12.70;65.00
78779;DHT22;68121;52.404;5.318;2023-05-27T07:06:03;12.90;64.90
78779;DHT22;68121;52.404;5.318;2023-05-27T07:08:29;12.90;64.70
78779;DHT22;68121;52.404;5.318;2023-05-27T07:10:55;12.90;64.60
78779;DHT22;68121;52.404;5.318;2023-05-27T07:13:21;13.00;64.60
78779;DHT22;68121;52.404;5.318;2023-05-27T07:15:47;13.10;64.60
78779;DHT22;68121;52.404;5.318;2023-05-27T07:18:14;13.10;64.40
78779;DHT22;68121;52.404;5.318;2023-05-27T07:20:40;13.20;64.30
78779;DHT22;68121;52.404;5.318;2023-05-27T07:23:06;13.10;64.20
78779;DHT22;68121;52.404;5.318;2023-05-27T07:25:32;13.10;64.20
78779;DHT22;68121;52.404;5.318;2023-05-27T07:27:58;13.20;64.20
78779;DHT22;68121;52.404;5.318;2023-05-27T07:30:24;13.30;64.20
78779;DHT22;68121;52.404;5.318;2023-05-27T07:32:50;13.40;64.00
78779;DHT22;68121;52.404;5.318;2023-05-27T07:35:16;13.50;63.80
78779;DHT22;68121;52.404;5.318;2023-05-27T07:37:42;13.50;63.70
78779;DHT22;68121;52.404;5.318;2023-05-27T07:40:08;13.60;63.60
78779;DHT22;68121;52.404;5.318;2023-05-27T07:42:35;13.70;63.60
78779;DHT22;68121;52.404;5.318;2023-05-27T07:45:02;13.90;63.50
78779;DHT22;68121;52.404;5.318;2023-05-27T07:47:28;14.10;63.20
78779;DHT22;68121;52.404;5.318;2023-05-27T07:49:55;14.30;63.00
78779;DHT22;68121;52.404;5.318;2023-05-27T07:52:21;14.40;62.90
78779;DHT22;68121;52.404;5.318;2023-05-27T07:54:47;14.60;62.70
78779;DHT22;68121;52.404;5.318;2023-05-27T07:57:14;14.70;62.30
78779;DHT22;68121;52.404;5.318;2023-05-27T07:59:43;14.70;62.20
78779;DHT22;68121;52.404;5.318;2023-05-27T08:02:09;14.70;62.10
78779;DHT22;68121;52.404;5.318;2023-05-27T08:04:35;14.80;62.10
78779;DHT22;68121;52.404;5.318;2023-05-27T08:07:01;14.90;61.80
78779;DHT22;68121;52.404;5.318;2023-05-27T08:09:27;15.00;61.60
78779;DHT22;68121;52.404;5.318;2023-05-27T08:11:53;15.20;61.40
78779;DHT22;68121;52.404;5.318;2023-05-27T08:14:20;15.30;61.00
78779;DHT22;68121;52.404;5.318;2023-05-27T08:16:46;15.40;60.80
78779;DHT22;68121;52.404;5.318;2023-05-27T08:19:12;15.50;60.50
78779;DHT22;68121;52.404;5.318;2023-05-27T08:21:38;15.60;60.60
78779;DHT22;68121;52.404;5.318;2023-05-27T08:24:04;15.80;60.60
78779;DHT22;68121;52.404;5.318;2023-05-27T08:26:31;15.80;60.50
78779;DHT22;68121;52.404;5.318;2023-05-27T08:28:57;16.00;60.20
78779;DHT22;68121;52.404;5.318;2023-05-27T08:31:23;16.10;60.20
78779;DHT22;68121;52.404;5.318;2023-05-27T08:33:49;16.30;60.00
78779;DHT22;68121;52.404;5.318;2023-05-27T08:36:16;16.40;59.70
78779;DHT22;68121;52.404;5.318;2023-05-27T08:38:44;16.50;59.50
78779;DHT22;68121;52.404;5.318;2023-05-27T08:41:10;16.70;59.40
78779;DHT22;68121;52.404;5.318;2023-05-27T08:43:37;16.80;59.20
78779;DHT22;68121;52.404;5.318;2023-05-27T08:46:03;16.90;59.00
78779;DHT22;68121;52.404;5.318;2023-05-27T08:48:31;16.90;58.80
78779;DHT22;68121;52.404;5.318;2023-05-27T08:50:57;17.00;58.70
78779;DHT22;68121;52.404;5.318;2023-05-27T08:53:26;17.20;58.60
78779;DHT22;68121;52.404;5.318;2023-05-27T08:55:54;17.20;58.40
78779;DHT22;68121;52.404;5.318;2023-05-27T08:58:20;17.40;58.00
78779;DHT22;68121;52.404;5.318;2023-05-27T09:00:47;17.50;57.70
78779;DHT22;68121;52.404;5.318;2023-05-27T09:03:13;17.50;57.60
78779;DHT22;68121;52.404;5.318;2023-05-27T09:05:39;17.50;57.50
78779;DHT22;68121;52.404;5.318;2023-05-27T09:08:05;17.70;57.40
78779;DHT22;68121;52.404;5.318;2023-05-27T09:10:38;17.80;57.20
78779;DHT22;68121;52.404;5.318;2023-05-27T09:13:04;18.00;56.70
78779;DHT22;68121;52.404;5.318;2023-05-27T09:15:32;18.00;56.70
78779;DHT22;68121;52.404;5.318;2023-05-27T09:17:58;18.00;56.50
78779;DHT22;68121;52.404;5.318;2023-05-27T09:20:25;18.00;56.60
78779;DHT22;68121;52.404;5.318;2023-05-27T09:23:00;18.10;56.40
78779;DHT22;68121;52.404;5.318;2023-05-27T09:25:27;18.20;56.10
78779;DHT22;68121;52.404;5.318;2023-05-27T09:27:54;18.20;56.00
78779;DHT22;68121;52.404;5.318;2023-05-27T09:30:21;18.20;55.80
78779;DHT22;68121;52.404;5.318;2023-05-27T09:32:48;18.30;55.80
78779;DHT22;68121;52.404;5.318;2023-05-27T09:35:16;18.40;55.80
78779;DHT22;68121;52.404;5.318;2023-05-27T09:37:42;18.60;55.80
78779;DHT22;68121;52.404;5.318;2023-05-27T09:40:12;18.80;55.60
78779;DHT22;68121;52.404;5.318;2023-05-27T09:42:51;18.90;55.50
78779;DHT22;68121;52.404;5.318;2023-05-27T09:45:20;19.00;55.20
78779;DHT22;68121;52.404;5.318;2023-05-27T09:47:51;19.00;55.10
78779;DHT22;68121;52.404;5.318;2023-05-27T09:50:18;18.90;55.00
78779;DHT22;68121;52.404;5.318;2023-05-27T09:52:47;19.00;55.10
78779;DHT22;68121;52.404;5.318;2023-05-27T09:55:15;19.00;54.90
78779;DHT22;68121;52.404;5.318;2023-05-27T09:57:42;18.90;55.00
78779;DHT22;68121;52.404;5.318;2023-05-27T10:00:10;19.00;55.10
78779;DHT22;68121;52.404;5.318;2023-05-27T10:02:46;19.10;55.00
78779;DHT22;68121;52.404;5.318;2023-05-27T10:05:14;19.30;54.80
78779;DHT22;68121;52.404;5.318;2023-05-27T10:07:42;19.40;54.70
78779;DHT22;68121;52.404;5.318;2023-05-27T10:10:10;19.50;54.60
78779;DHT22;68121;52.404;5.318;2023-05-27T10:12:38;19.70;54.60
78779;DHT22;68121;52.404;5.318;2023-05-27T10:15:05;19.80;54.20
78779;DHT22;68121;52.404;5.318;2023-05-27T10:17:51;19.90;54.00
78779;DHT22;68121;52.404;5.318;2023-05-27T10:20:48;19.90;53.60
78779;DHT22;68121;52.404;5.318;2023-05-27T10:23:19;20.00;53.40
78779;DHT22;68121;52.404;5.318;2023-05-27T10:25:49;20.10;53.70
78779;DHT22;68121;52.404;5.318;2023-05-27T10:28:29;20.30;53.40
78779;DHT22;68121;52.404;5.318;2023-05-27T10:31:11;20.30;53.10
78779;DHT22;68121;52.404;5.318;2023-05-27T10:33:44;20.40;53.00
78779;DHT22;68121;52.404;5.318;2023-05-27T10:36:16;20.30;53.10
78779;DHT22;68121;52.404;5.318;2023-05-27T10:38:54;20.40;53.00
78779;DHT22;68121;52.404;5.318;2023-05-27T10:41:21;20.50;52.60
78779;DHT22;68121;52.404;5.318;2023-05-27T10:43:58;20.60;52.50
78779;DHT22;68121;52.404;5.318;2023-05-27T10:46:25;20.60;52.30
78779;DHT22;68121;52.404;5.318;2023-05-27T10:48:52;20.80;52.30
78779;DHT22;68121;52.404;5.318;2023-05-27T10:51:18;21.00;52.10
78779;DHT22;68121;52.404;5.318;2023-05-27T10:53:45;21.10;52.00
78779;DHT22;68121;52.404;5.318;2023-05-27T10:56:11;21.30;51.80
78779;DHT22;68121;52.404;5.318;2023-05-27T10:58:38;21.40;51.50
78779;DHT22;68121;52.404;5.318;2023-05-27T11:01:13;21.50;51.20
78779;DHT22;68121;52.404;5.318;2023-05-27T11:03:44;21.40;51.10
78779;DHT22;68121;52.404;5.318;2023-05-27T11:06:11;21.40;51.10
78779;DHT22;68121;52.404;5.318;2023-05-27T11:08:37;21.50;51.10
78779;DHT22;68121;52.404;5.318;2023-05-27T11:11:06;21.50;51.00
78779;DHT22;68121;52.404;5.318;2023-05-27T11:13:35;21.50;50.90
78779;DHT22;68121;52.404;5.318;2023-05-27T11:16:03;21.50;50.80
78779;DHT22;68121;52.404;5.318;2023-05-27T11:18:40;21.70;51.00
78779;DHT22;68121;52.404;5.318;2023-05-27T11:21:07;21.70;50.60
78779;DHT22;68121;52.404;5.318;2023-05-27T11:23:38;21.70;50.60
78779;DHT22;68121;52.404;5.318;2023-05-27T11:26:19;21.90;50.50
78779;DHT22;68121;52.404;5.318;2023-05-27T11:31:13;21.90;50.50
78779;DHT22;68121;52.404;5.318;2023-05-27T11:33:41;22.10;50.30
78779;DHT22;68121;52.404;5.318;2023-05-27T11:36:12;22.20;50.20
78779;DHT22;68121;52.404;5.318;2023-05-27T11:38:58;22.20;50.20
78779;DHT22;68121;52.404;5.318;2023-05-27T11:41:26;22.30;49.80
78779;DHT22;68121;52.404;5.318;2023-05-27T11:43:56;22.40;49.80
78779;DHT22;68121;52.404;5.318;2023-05-27T11:46:42;22.50;49.80
78779;DHT22;68121;52.404;5.318;2023-05-27T11:49:09;22.40;50.30
78779;DHT22;68121;52.404;5.318;2023-05-27T11:51:37;22.20;50.80
78779;DHT22;68121;52.404;5.318;2023-05-27T11:54:04;22.20;50.90
78779;DHT22;68121;52.404;5.318;2023-05-27T11:56:30;22.30;50.50
78779;DHT22;68121;52.404;5.318;2023-05-27T11:58:57;22.40;50.40
78779;DHT22;68121;52.404;5.318;2023-05-27T12:01:23;22.50;50.50
78779;DHT22;68121;52.404;5.318;2023-05-27T12:03:49;22.50;50.10
78779;DHT22;68121;52.404;5.318;2023-05-27T12:06:15;22.40;50.40
78779;DHT22;68121;52.404;5.318;2023-05-27T12:08:41;22.20;50.70
78779;DHT22;68121;52.404;5.318;2023-05-27T12:11:08;22.00;51.00
78779;DHT22;68121;52.404;5.318;2023-05-27T12:13:34;21.80;51.50
78779;DHT22;68121;52.404;5.318;2023-05-27T12:16:00;21.70;52.00
78779;DHT22;68121;52.404;5.318;2023-05-27T12:18:29;21.50;52.10
78779;DHT22;68121;52.404;5.318;2023-05-27T12:20:55;21.30;52.30
78779;DHT22;68121;52.404;5.318;2023-05-27T12:23:22;21.20;52.60
78779;DHT22;68121;52.404;5.318;2023-05-27T12:25:48;21.10;52.40
78779;DHT22;68121;52.404;5.318;2023-05-27T12:28:14;21.10;52.50
78779;DHT22;68121;52.404;5.318;2023-05-27T12:30:40;20.90;52.60
78779;DHT22;68121;52.404;5.318;2023-05-27T12:33:06;20.70;53.10
78779;DHT22;68121;52.404;5.318;2023-05-27T12:35:33;20.70;53.40
78779;DHT22;68121;52.404;5.318;2023-05-27T12:38:00;20.60;53.60
78779;DHT22;68121;52.404;5.318;2023-05-27T12:40:27;20.60;53.80
78779;DHT22;68121;52.404;5.318;2023-05-27T12:42:53;20.60;53.90
78779;DHT22;68121;52.404;5.318;2023-05-27T12:45:19;20.80;53.80
78779;DHT22;68121;52.404;5.318;2023-05-27T12:47:50;20.80;53.70
78779;DHT22;68121;52.404;5.318;2023-05-27T12:50:16;20.90;53.70
78779;DHT22;68121;52.404;5.318;2023-05-27T12:52:43;20.80;53.70
78779;DHT22;68121;52.404;5.318;2023-05-27T12:55:14;20.70;53.60
78779;DHT22;68121;52.404;5.318;2023-05-27T12:57:40;20.70;53.70
78779;DHT22;68121;52.404;5.318;2023-05-27T13:00:06;20.70;53.70
78779;DHT22;68121;52.404;5.318;2023-05-27T13:02:33;20.70;53.90
78779;DHT22;68121;52.404;5.318;2023-05-27T13:04:59;20.70;53.90
78779;DHT22;68121;52.404;5.318;2023-05-27T13:07:26;20.70;54.00
78779;DHT22;68121;52.404;5.318;2023-05-27T13:09:53;20.80;54.00
78779;DHT22;68121;52.404;5.318;2023-05-27T13:12:19;20.90;54.00
78779;DHT22;68121;52.404;5.318;2023-05-27T13:14:45;20.90;53.90
78779;DHT22;68121;52.404;5.318;2023-05-27T13:17:11;21.00;53.90
78779;DHT22;68121;52.404;5.318;2023-05-27T13:19:37;21.00;53.80
78779;DHT22;68121;52.404;5.318;2023-05-27T13:22:04;21.00;53.70
78779;DHT22;68121;52.404;5.318;2023-05-27T13:24:30;20.80;53.70
78779;DHT22;68121;52.404;5.318;2023-05-27T13:26:56;20.70;53.90
78779;DHT22;68121;52.404;5.318;2023-05-27T13:29:22;20.70;54.00
78779;DHT22;68121;52.404;5.318;2023-05-27T13:31:48;20.80;54.00
78779;DHT22;68121;52.404;5.318;2023-05-27T13:34:16;20.90;53.80
78779;DHT22;68121;52.404;5.318;2023-05-27T13:36:42;20.90;53.80
78779;DHT22;68121;52.404;5.318;2023-05-27T13:39:08;21.10;53.80
78779;DHT22;68121;52.404;5.318;2023-05-27T13:41:34;21.20;53.70
78779;DHT22;68121;52.404;5.318;2023-05-27T13:44:00;21.20;53.40
78779;DHT22;68121;52.404;5.318;2023-05-27T13:46:26;21.10;53.30
78779;DHT22;68121;52.404;5.318;2023-05-27T13:48:52;21.20;53.30
78779;DHT22;68121;52.404;5.318;2023-05-27T13:51:19;21.10;53.40
78779;DHT22;68121;52.404;5.318;2023-05-27T13:53:45;20.90;53.50
78779;DHT22;68121;52.404;5.318;2023-05-27T13:56:11;20.90;53.60
78779;DHT22;68121;52.404;5.318;2023-05-27T13:58:37;20.90;53.70
78779;DHT22;68121;52.404;5.318;2023-05-27T14:01:03;20.90;53.70
78779;DHT22;68121;52.404;5.318;2023-05-27T14:03:30;20.90;53.90
78779;DHT22;68121;52.404;5.318;2023-05-27T14:05:56;20.90;54.00
78779;DHT22;68121;52.404;5.318;2023-05-27T14:08:22;20.80;54.10
78779;DHT22;68121;52.404;5.318;2023-05-27T14:10:48;20.80;54.00
78779;DHT22;68121;52.404;5.318;2023-05-27T14:13:14;20.70;54.10
78779;DHT22;68121;52.404;5.318;2023-05-27T14:15:41;20.60;54.10
78779;DHT22;68121;52.404;5.318;2023-05-27T14:18:07;20.50;54.20
78779;DHT22;68121;52.404;5.318;2023-05-27T14:20:33;20.50;54.30
78779;DHT22;68121;52.404;5.318;2023-05-27T14:22:59;20.50;54.40
78779;DHT22;68121;52.404;5.318;2023-05-27T14:25:28;20.60;54.40
78779;DHT22;68121;52.404;5.318;2023-05-27T14:27:54;20.60;54.50
78779;DHT22;68121;52.404;5.318;2023-05-27T14:30:22;20.60;54.40
78779;DHT22;68121;52.404;5.318;2023-05-27T14:32:50;20.60;54.40
78779;DHT22;68121;52.404;5.318;2023-05-27T14:35:16;20.60;54.40
78779;DHT22;68121;52.404;5.318;2023-05-27T14:37:42;20.50;54.60
78779;DHT22;68121;52.404;5.318;2023-05-27T14:40:09;20.40;55.00
78779;DHT22;68121;52.404;5.318;2023-05-27T14:42:35;20.30;55.30
78779;DHT22;68121;52.404;5.318;2023-05-27T14:45:01;20.30;55.70
78779;DHT22;68121;52.404;5.318;2023-05-27T14:47:28;20.20;55.90
78779;DHT22;68121;52.404;5.318;2023-05-27T14:49:54;20.10;56.10
78779;DHT22;68121;52.404;5.318;2023-05-27T14:52:20;20.00;56.10
78779;DHT22;68121;52.404;5.318;2023-05-27T14:54:46;20.00;56.20
78779;DHT22;68121;52.404;5.318;2023-05-27T14:57:12;20.00;56.10
78779;DHT22;68121;52.404;5.318;2023-05-27T14:59:38;19.90;56.20
78779;DHT22;68121;52.404;5.318;2023-05-27T15:02:04;19.80;56.20
78779;DHT22;68121;52.404;5.318;2023-05-27T15:04:30;19.70;56.40
78779;DHT22;68121;52.404;5.318;2023-05-27T15:06:56;19.70;56.40
78779;DHT22;68121;52.404;5.318;2023-05-27T15:09:22;19.60;56.40
78779;DHT22;68121;52.404;5.318;2023-05-27T15:11:48;19.50;56.60
78779;DHT22;68121;52.404;5.318;2023-05-27T15:14:14;19.50;56.60
78779;DHT22;68121;52.404;5.318;2023-05-27T15:16:40;19.50;56.90
78779;DHT22;68121;52.404;5.318;2023-05-27T15:19:06;19.50;57.00
78779;DHT22;68121;52.404;5.318;2023-05-27T15:21:32;19.50;56.90
78779;DHT22;68121;52.404;5.318;2023-05-27T15:23:58;19.40;57.00
78779;DHT22;68121;52.404;5.318;2023-05-27T15:26:24;19.40;57.10
78779;DHT22;68121;52.404;5.318;2023-05-27T15:28:51;19.30;57.40
78779;DHT22;68121;52.404;5.318;2023-05-27T15:31:17;19.30;57.90
78779;DHT22;68121;52.404;5.318;2023-05-27T15:33:46;19.30;58.10
78779;DHT22;68121;52.404;5.318;2023-05-27T15:36:12;19.30;58.00
78779;DHT22;68121;52.404;5.318;2023-05-27T15:38:38;19.30;58.10
78779;DHT22;68121;52.404;5.318;2023-05-27T15:41:04;19.30;58.20